sensor_id;sensor_type;location;lat;lon;timestamp;P1;durP1;ratioP1;P2;durP2;ratioP2
21010;SDS011;10663;42.714;23.274;2023-12-20T00:01:05;103.75;;;63.88;;
21010;SDS011;10663;42.714;23.274;2023-12-20T00:02:36;96.30;;;64.15;;
21010;SDS011;10663;42.714;23.274;2023-12-20T00:04:06;96.17;;;61.90;;
21010;SDS011;10663;42.714;23.274;2023-12-20T00:05:37;94.77;;;59.93;;
21010;SDS011;10663;42.714;23.274;2023-12-20T00:07:11;93.88;;;61.08;;
21010;SDS011;10663;42.714;23.274;2023-12-20T00:08:42;89.17;;;60.43;;
21010;SDS011;10663;42.714;23.274;2023-12-20T00:10:14;85.43;;;55.20;;
21010;SDS011;10663;42.714;23.274;2023-12-20T00:11:45;84.50;;;55.60;;
21010;SDS011;10663;42.714;23.274;2023-12-20T00:13:16;76.07;;;50.42;;
21010;SDS011;10663;42.714;23.274;2023-12-20T00:14:47;69.20;;;48.67;;
21010;SDS011;10663;42.714;23.274;2023-12-20T00:16:17;71.93;;;48.60;;
21010;SDS011;10663;42.714;23.274;2023-12-20T00:17:49;67.63;;;46.40;;
21010;SDS011;10663;42.714;23.274;2023-12-20T00:19:19;72.45;;;48.85;;
21010;SDS011;10663;42.714;23.274;2023-12-20T00:20:52;69.28;;;46.88;;
21010;SDS011;10663;42.714;23.274;2023-12-20T00:22:22;66.72;;;46.92;;
21010;SDS011;10663;42.714;23.274;2023-12-20T00:23:53;71.25;;;49.17;;
21010;SDS011;10663;42.714;23.274;2023-12-20T00:25:24;69.22;;;44.70;;
21010;SDS011;10663;42.714;23.274;2023-12-20T00:26:55;68.20;;;45.60;;
21010;SDS011;10663;42.714;23.274;2023-12-20T00:28:25;66.15;;;44.20;;
21010;SDS011;10663;42.714;23.274;2023-12-20T00:29:56;65.20;;;45.67;;
21010;SDS011;10663;42.714;23.274;2023-12-20T00:31:27;61.53;;;41.90;;
21010;SDS011;10663;42.714;23.274;2023-12-20T00:32:58;59.20;;;40.43;;
21010;SDS011;10663;42.714;23.274;2023-12-20T00:34:28;58.50;;;38.50;;
21010;SDS011;10663;42.714;23.274;2023-12-20T00:35:59;58.85;;;39.67;;
21010;SDS011;10663;42.714;23.274;2023-12-20T00:37:30;56.45;;;38.58;;
21010;SDS011;10663;42.714;23.274;2023-12-20T00:39:00;54.67;;;39.50;;
21010;SDS011;10663;42.714;23.274;2023-12-20T00:40:32;60.47;;;38.92;;
21010;SDS011;10663;42.714;23.274;2023-12-20T00:42:03;50.15;;;35.90;;
21010;SDS011;10663;42.714;23.274;2023-12-20T00:43:34;57.47;;;40.10;;
21010;SDS011;10663;42.714;23.274;2023-12-20T00:45:05;61.27;;;40.40;;
21010;SDS011;10663;42.714;23.274;2023-12-20T00:46:36;60.70;;;41.67;;
21010;SDS011;10663;42.714;23.274;2023-12-20T00:48:07;69.10;;;44.75;;
21010;SDS011;10663;42.714;23.274;2023-12-20T00:49:37;66.43;;;43.70;;
21010;SDS011;10663;42.714;23.274;2023-12-20T00:51:08;60.53;;;41.43;;
21010;SDS011;10663;42.714;23.274;2023-12-20T00:52:39;69.68;;;46.63;;
21010;SDS011;10663;42.714;23.274;2023-12-20T00:54:10;63.40;;;41.43;;
21010;SDS011;10663;42.714;23.274;2023-12-20T00:55:41;65.43;;;45.03;;
21010;SDS011;10663;42.714;23.274;2023-12-20T00:57:11;71.25;;;47.42;;
21010;SDS011;10663;42.714;23.274;2023-12-20T00:58:42;82.43;;;53.60;;
21010;SDS011;10663;42.714;23.274;2023-12-20T01:00:13;77.15;;;50.35;;
21010;SDS011;10663;42.714;23.274;2023-12-20T01:01:44;86.88;;;51.40;;
21010;SDS011;10663;42.714;23.274;2023-12-20T01:03:15;76.30;;;48.83;;
21010;SDS011;10663;42.714;23.274;2023-12-20T01:04:45;78.00;;;49.08;;
21010;SDS011;10663;42.714;23.274;2023-12-20T01:06:17;75.65;;;49.70;;
21010;SDS011;10663;42.714;23.274;2023-12-20T01:07:47;76.85;;;50.40;;
21010;SDS011;10663;42.714;23.274;2023-12-20T01:09:18;76.05;;;48.75;;
21010;SDS011;10663;42.714;23.274;2023-12-20T01:10:49;74.28;;;49.05;;
21010;SDS011;10663;42.714;23.274;2023-12-20T01:12:19;83.40;;;52.15;;
21010;SDS011;10663;42.714;23.274;2023-12-20T01:13:50;75.13;;;51.40;;
21010;SDS011;10663;42.714;23.274;2023-12-20T01:15:21;80.30;;;51.60;;
21010;SDS011;10663;42.714;23.274;2023-12-20T01:16:52;79.53;;;52.67;;
21010;SDS011;10663;42.714;23.274;2023-12-20T01:18:22;77.93;;;51.20;;
21010;SDS011;10663;42.714;23.274;2023-12-20T01:19:53;81.27;;;50.53;;
21010;SDS011;10663;42.714;23.274;2023-12-20T01:21:24;79.35;;;50.70;;
21010;SDS011;10663;42.714;23.274;2023-12-20T01:22:54;77.60;;;51.15;;
21010;SDS011;10663;42.714;23.274;2023-12-20T01:24:25;79.75;;;51.22;;
21010;SDS011;10663;42.714;23.274;2023-12-20T01:25:57;71.50;;;47.78;;
21010;SDS011;10663;42.714;23.274;2023-12-20T01:27:29;74.63;;;49.20;;
21010;SDS011;10663;42.714;23.274;2023-12-20T01:29:01;71.65;;;45.63;;
21010;SDS011;10663;42.714;23.274;2023-12-20T01:30:32;73.43;;;48.58;;
21010;SDS011;10663;42.714;23.274;2023-12-20T01:32:02;69.40;;;45.85;;
21010;SDS011;10663;42.714;23.274;2023-12-20T01:33:33;69.65;;;44.95;;
21010;SDS011;10663;42.714;23.274;2023-12-20T01:35:04;63.15;;;42.30;;
21010;SDS011;10663;42.714;23.274;2023-12-20T01:36:35;84.70;;;54.67;;
21010;SDS011;10663;42.714;23.274;2023-12-20T01:38:05;96.90;;;63.10;;
21010;SDS011;10663;42.714;23.274;2023-12-20T01:39:37;67.93;;;45.45;;
21010;SDS011;10663;42.714;23.274;2023-12-20T01:41:07;71.30;;;48.80;;
21010;SDS011;10663;42.714;23.274;2023-12-20T01:42:38;71.67;;;48.83;;
21010;SDS011;10663;42.714;23.274;2023-12-20T01:44:09;81.90;;;51.53;;
21010;SDS011;10663;42.714;23.274;2023-12-20T01:45:40;88.23;;;57.57;;
21010;SDS011;10663;42.714;23.274;2023-12-20T01:47:11;78.35;;;51.67;;
21010;SDS011;10663;42.714;23.274;2023-12-20T01:48:42;78.05;;;49.55;;
21010;SDS011;10663;42.714;23.274;2023-12-20T01:50:13;80.03;;;51.10;;
21010;SDS011;10663;42.714;23.274;2023-12-20T01:51:44;78.10;;;49.95;;
21010;SDS011;10663;42.714;23.274;2023-12-20T01:53:15;74.80;;;48.63;;
21010;SDS011;10663;42.714;23.274;2023-12-20T01:54:49;71.10;;;47.22;;
21010;SDS011;10663;42.714;23.274;2023-12-20T01:56:20;81.07;;;51.83;;
21010;SDS011;10663;42.714;23.274;2023-12-20T01:57:51;83.57;;;50.55;;
21010;SDS011;10663;42.714;23.274;2023-12-20T01:59:22;90.85;;;55.78;;
21010;SDS011;10663;42.714;23.274;2023-12-20T02:00:52;96.03;;;58.72;;
21010;SDS011;10663;42.714;23.274;2023-12-20T02:02:25;96.45;;;57.38;;
21010;SDS011;10663;42.714;23.274;2023-12-20T02:03:58;97.18;;;58.22;;
21010;SDS011;10663;42.714;23.274;2023-12-20T02:05:30;98.97;;;57.88;;
21010;SDS011;10663;42.714;23.274;2023-12-20T02:07:02;96.00;;;55.55;;
21010;SDS011;10663;42.714;23.274;2023-12-20T02:08:34;102.32;;;58.08;;
21010;SDS011;10663;42.714;23.274;2023-12-20T02:10:05;94.82;;;56.92;;
21010;SDS011;10663;42.714;23.274;2023-12-20T02:11:36;92.28;;;55.70;;
21010;SDS011;10663;42.714;23.274;2023-12-20T02:13:06;82.93;;;52.45;;
21010;SDS011;10663;42.714;23.274;2023-12-20T02:14:37;88.03;;;52.90;;
21010;SDS011;10663;42.714;23.274;2023-12-20T02:16:08;87.95;;;52.88;;
21010;SDS011;10663;42.714;23.274;2023-12-20T02:17:39;86.87;;;53.70;;
21010;SDS011;10663;42.714;23.274;2023-12-20T02:19:13;91.72;;;52.90;;
21010;SDS011;10663;42.714;23.274;2023-12-20T02:20:45;97.93;;;55.00;;
21010;SDS011;10663;42.714;23.274;2023-12-20T02:22:16;98.57;;;54.25;;
21010;SDS011;10663;42.714;23.274;2023-12-20T02:23:46;94.53;;;53.55;;
21010;SDS011;10663;42.714;23.274;2023-12-20T02:25:17;90.95;;;53.83;;
21010;SDS011;10663;42.714;23.274;2023-12-20T02:26:48;92.78;;;53.22;;
21010;SDS011;10663;42.714;23.274;2023-12-20T02:28:19;86.50;;;52.50;;
21010;SDS011;10663;42.714;23.274;2023-12-20T02:29:49;86.50;;;50.67;;
21010;SDS011;10663;42.714;23.274;2023-12-20T02:31:21;74.97;;;47.20;;
21010;SDS011;10663;42.714;23.274;2023-12-20T02:32:52;64.90;;;42.13;;
21010;SDS011;10663;42.714;23.274;2023-12-20T02:34:24;72.20;;;45.50;;
21010;SDS011;10663;42.714;23.274;2023-12-20T02:35:55;75.93;;;45.30;;
21010;SDS011;10663;42.714;23.274;2023-12-20T02:37:25;60.25;;;41.30;;
21010;SDS011;10663;42.714;23.274;2023-12-20T02:38:56;72.68;;;45.63;;
21010;SDS011;10663;42.714;23.274;2023-12-20T02:40:27;78.95;;;46.08;;
21010;SDS011;10663;42.714;23.274;2023-12-20T02:41:57;74.17;;;45.10;;
21010;SDS011;10663;42.714;23.274;2023-12-20T02:43:28;73.80;;;44.27;;
21010;SDS011;10663;42.714;23.274;2023-12-20T02:44:59;78.72;;;45.65;;
21010;SDS011;10663;42.714;23.274;2023-12-20T02:46:29;71.57;;;42.80;;
21010;SDS011;10663;42.714;23.274;2023-12-20T02:48:00;74.78;;;44.30;;
21010;SDS011;10663;42.714;23.274;2023-12-20T02:49:31;73.97;;;42.57;;
21010;SDS011;10663;42.714;23.274;2023-12-20T02:51:01;76.03;;;45.47;;
21010;SDS011;10663;42.714;23.274;2023-12-20T02:52:32;73.17;;;44.10;;
21010;SDS011;10663;42.714;23.274;2023-12-20T02:54:03;68.63;;;43.05;;
21010;SDS011;10663;42.714;23.274;2023-12-20T02:55:33;79.10;;;45.50;;
21010;SDS011;10663;42.714;23.274;2023-12-20T02:57:04;78.43;;;44.90;;
21010;SDS011;10663;42.714;23.274;2023-12-20T02:58:35;77.57;;;45.55;;
21010;SDS011;10663;42.714;23.274;2023-12-20T03:00:06;81.60;;;44.63;;
21010;SDS011;10663;42.714;23.274;2023-12-20T03:01:44;81.70;;;46.22;;
21010;SDS011;10663;42.714;23.274;2023-12-20T03:03:16;80.75;;;46.17;;
21010;SDS011;10663;42.714;23.274;2023-12-20T03:04:46;80.40;;;45.20;;
21010;SDS011;10663;42.714;23.274;2023-12-20T03:06:17;79.28;;;44.97;;
21010;SDS011;10663;42.714;23.274;2023-12-20T03:07:49;86.30;;;44.58;;
21010;SDS011;10663;42.714;23.274;2023-12-20T03:09:19;90.87;;;45.97;;
21010;SDS011;10663;42.714;23.274;2023-12-20T03:10:50;88.30;;;46.10;;
21010;SDS011;10663;42.714;23.274;2023-12-20T03:12:21;88.57;;;45.47;;
21010;SDS011;10663;42.714;23.274;2023-12-20T03:13:51;83.65;;;46.22;;
21010;SDS011;10663;42.714;23.274;2023-12-20T03:15:22;88.55;;;47.42;;
21010;SDS011;10663;42.714;23.274;2023-12-20T03:16:53;98.93;;;49.13;;
21010;SDS011;10663;42.714;23.274;2023-12-20T03:18:23;95.87;;;48.13;;
21010;SDS011;10663;42.714;23.274;2023-12-20T03:19:54;94.13;;;48.43;;
21010;SDS011;10663;42.714;23.274;2023-12-20T03:21:25;102.00;;;48.60;;
21010;SDS011;10663;42.714;23.274;2023-12-20T03:22:56;107.20;;;51.50;;
21010;SDS011;10663;42.714;23.274;2023-12-20T03:24:26;98.38;;;49.42;;
21010;SDS011;10663;42.714;23.274;2023-12-20T03:25:58;98.68;;;47.25;;
21010;SDS011;10663;42.714;23.274;2023-12-20T03:27:31;94.45;;;49.13;;
21010;SDS011;10663;42.714;23.274;2023-12-20T03:29:02;96.93;;;50.67;;
21010;SDS011;10663;42.714;23.274;2023-12-20T03:30:32;97.27;;;49.67;;
21010;SDS011;10663;42.714;23.274;2023-12-20T03:32:03;95.27;;;48.27;;
21010;SDS011;10663;42.714;23.274;2023-12-20T03:33:34;93.20;;;48.22;;
21010;SDS011;10663;42.714;23.274;2023-12-20T03:35:05;98.35;;;48.97;;
21010;SDS011;10663;42.714;23.274;2023-12-20T03:36:36;99.85;;;50.78;;
21010;SDS011;10663;42.714;23.274;2023-12-20T03:38:06;102.18;;;53.45;;
21010;SDS011;10663;42.714;23.274;2023-12-20T03:39:37;110.32;;;56.35;;
21010;SDS011;10663;42.714;23.274;2023-12-20T03:41:08;104.75;;;52.55;;
21010;SDS011;10663;42.714;23.274;2023-12-20T03:42:38;109.20;;;51.95;;
21010;SDS011;10663;42.714;23.274;2023-12-20T03:44:09;79.70;;;48.65;;
21010;SDS011;10663;42.714;23.274;2023-12-20T03:45:40;89.27;;;49.67;;
21010;SDS011;10663;42.714;23.274;2023-12-20T03:47:11;91.70;;;49.17;;
21010;SDS011;10663;42.714;23.274;2023-12-20T03:48:42;100.38;;;53.05;;
21010;SDS011;10663;42.714;23.274;2023-12-20T03:50:12;98.00;;;51.47;;
21010;SDS011;10663;42.714;23.274;2023-12-20T03:51:43;98.03;;;53.27;;
21010;SDS011;10663;42.714;23.274;2023-12-20T03:53:14;93.47;;;52.92;;
21010;SDS011;10663;42.714;23.274;2023-12-20T03:54:44;92.55;;;51.90;;
21010;SDS011;10663;42.714;23.274;2023-12-20T03:56:15;102.95;;;53.65;;
21010;SDS011;10663;42.714;23.274;2023-12-20T03:57:46;94.38;;;52.85;;
21010;SDS011;10663;42.714;23.274;2023-12-20T03:59:17;93.95;;;52.42;;
21010;SDS011;10663;42.714;23.274;2023-12-20T04:00:48;96.72;;;52.30;;
21010;SDS011;10663;42.714;23.274;2023-12-20T04:02:19;98.57;;;53.45;;
21010;SDS011;10663;42.714;23.274;2023-12-20T04:03:49;93.35;;;51.17;;
21010;SDS011;10663;42.714;23.274;2023-12-20T04:05:20;96.07;;;52.13;;
21010;SDS011;10663;42.714;23.274;2023-12-20T04:06:51;94.37;;;53.77;;
21010;SDS011;10663;42.714;23.274;2023-12-20T04:08:21;98.47;;;51.33;;
21010;SDS011;10663;42.714;23.274;2023-12-20T04:09:52;93.70;;;51.65;;
21010;SDS011;10663;42.714;23.274;2023-12-20T04:11:23;95.43;;;51.38;;
21010;SDS011;10663;42.714;23.274;2023-12-20T04:12:53;97.88;;;52.05;;
21010;SDS011;10663;42.714;23.274;2023-12-20T04:14:25;96.50;;;52.85;;
21010;SDS011;10663;42.714;23.274;2023-12-20T04:15:56;90.55;;;50.28;;
21010;SDS011;10663;42.714;23.274;2023-12-20T04:17:26;92.70;;;50.25;;
21010;SDS011;10663;42.714;23.274;2023-12-20T04:18:57;98.43;;;52.17;;
21010;SDS011;10663;42.714;23.274;2023-12-20T04:20:28;93.07;;;52.13;;
21010;SDS011;10663;42.714;23.274;2023-12-20T04:21:58;92.43;;;50.93;;
21010;SDS011;10663;42.714;23.274;2023-12-20T04:23:29;91.93;;;51.77;;
21010;SDS011;10663;42.714;23.274;2023-12-20T04:25:00;92.32;;;51.60;;
21010;SDS011;10663;42.714;23.274;2023-12-20T04:26:30;88.15;;;50.33;;
21010;SDS011;10663;42.714;23.274;2023-12-20T04:28:01;89.03;;;51.38;;
21010;SDS011;10663;42.714;23.274;2023-12-20T04:29:32;89.80;;;50.50;;
21010;SDS011;10663;42.714;23.274;2023-12-20T04:31:02;88.13;;;51.47;;
21010;SDS011;10663;42.714;23.274;2023-12-20T04:32:33;85.77;;;50.23;;
21010;SDS011;10663;42.714;23.274;2023-12-20T04:34:04;95.37;;;53.70;;
21010;SDS011;10663;42.714;23.274;2023-12-20T04:35:35;88.00;;;50.95;;
21010;SDS011;10663;42.714;23.274;2023-12-20T04:37:06;89.77;;;51.57;;
21010;SDS011;10663;42.714;23.274;2023-12-20T04:38:36;87.20;;;51.72;;
21010;SDS011;10663;42.714;23.274;2023-12-20T04:40:07;94.10;;;53.65;;
21010;SDS011;10663;42.714;23.274;2023-12-20T04:41:38;88.95;;;51.90;;
21010;SDS011;10663;42.714;23.274;2023-12-20T04:43:09;84.87;;;51.07;;
21010;SDS011;10663;42.714;23.274;2023-12-20T04:44:40;85.53;;;51.37;;
21010;SDS011;10663;42.714;23.274;2023-12-20T04:46:11;84.68;;;50.05;;
21010;SDS011;10663;42.714;23.274;2023-12-20T04:47:42;87.82;;;51.80;;
21010;SDS011;10663;42.714;23.274;2023-12-20T04:49:12;86.35;;;51.80;;
21010;SDS011;10663;42.714;23.274;2023-12-20T04:50:43;97.23;;;54.73;;
21010;SDS011;10663;42.714;23.274;2023-12-20T04:52:14;90.75;;;53.88;;
21010;SDS011;10663;42.714;23.274;2023-12-20T04:53:45;86.65;;;51.53;;
21010;SDS011;10663;42.714;23.274;2023-12-20T04:55:15;77.38;;;47.45;;
21010;SDS011;10663;42.714;23.274;2023-12-20T04:56:46;72.80;;;46.50;;
21010;SDS011;10663;42.714;23.274;2023-12-20T04:58:17;79.72;;;47.67;;
21010;SDS011;10663;42.714;23.274;2023-12-20T04:59:48;79.65;;;46.70;;
21010;SDS011;10663;42.714;23.274;2023-12-20T05:01:19;83.35;;;49.30;;
21010;SDS011;10663;42.714;23.274;2023-12-20T05:02:51;79.38;;;50.65;;
21010;SDS011;10663;42.714;23.274;2023-12-20T05:04:22;79.82;;;48.10;;
21010;SDS011;10663;42.714;23.274;2023-12-20T05:05:52;78.70;;;48.75;;
21010;SDS011;10663;42.714;23.274;2023-12-20T05:07:23;84.43;;;51.08;;
21010;SDS011;10663;42.714;23.274;2023-12-20T05:08:54;86.32;;;50.55;;
21010;SDS011;10663;42.714;23.274;2023-12-20T05:10:24;80.57;;;48.97;;
21010;SDS011;10663;42.714;23.274;2023-12-20T05:11:57;84.57;;;51.17;;
21010;SDS011;10663;42.714;23.274;2023-12-20T05:13:27;86.68;;;53.13;;
21010;SDS011;10663;42.714;23.274;2023-12-20T05:14:58;86.00;;;51.50;;
21010;SDS011;10663;42.714;23.274;2023-12-20T05:16:29;85.13;;;52.13;;
21010;SDS011;10663;42.714;23.274;2023-12-20T05:18:00;89.22;;;53.85;;
21010;SDS011;10663;42.714;23.274;2023-12-20T05:19:31;82.53;;;52.08;;
21010;SDS011;10663;42.714;23.274;2023-12-20T05:21:05;81.22;;;50.55;;
21010;SDS011;10663;42.714;23.274;2023-12-20T05:22:36;89.57;;;52.55;;
21010;SDS011;10663;42.714;23.274;2023-12-20T05:24:07;87.80;;;50.85;;
21010;SDS011;10663;42.714;23.274;2023-12-20T05:25:37;77.43;;;49.25;;
21010;SDS011;10663;42.714;23.274;2023-12-20T05:27:08;79.65;;;48.97;;
21010;SDS011;10663;42.714;23.274;2023-12-20T05:28:39;96.30;;;53.37;;
21010;SDS011;10663;42.714;23.274;2023-12-20T05:30:09;84.43;;;50.33;;
21010;SDS011;10663;42.714;23.274;2023-12-20T05:31:40;88.07;;;49.15;;
21010;SDS011;10663;42.714;23.274;2023-12-20T05:33:11;88.80;;;49.57;;
21010;SDS011;10663;42.714;23.274;2023-12-20T05:34:42;82.33;;;50.00;;
21010;SDS011;10663;42.714;23.274;2023-12-20T05:36:13;84.20;;;49.07;;
21010;SDS011;10663;42.714;23.274;2023-12-20T05:37:45;79.15;;;48.33;;
21010;SDS011;10663;42.714;23.274;2023-12-20T05:39:16;87.10;;;49.53;;
21010;SDS011;10663;42.714;23.274;2023-12-20T05:40:47;81.43;;;48.83;;
21010;SDS011;10663;42.714;23.274;2023-12-20T05:42:17;79.63;;;46.67;;
21010;SDS011;10663;42.714;23.274;2023-12-20T05:43:48;85.15;;;48.25;;
21010;SDS011;10663;42.714;23.274;2023-12-20T05:45:19;78.43;;;49.17;;
21010;SDS011;10663;42.714;23.274;2023-12-20T05:46:50;79.20;;;49.67;;
21010;SDS011;10663;42.714;23.274;2023-12-20T05:48:20;81.07;;;49.50;;
21010;SDS011;10663;42.714;23.274;2023-12-20T05:49:51;80.43;;;48.87;;
21010;SDS011;10663;42.714;23.274;2023-12-20T05:51:22;79.10;;;48.53;;
21010;SDS011;10663;42.714;23.274;2023-12-20T05:52:53;87.97;;;52.33;;
21010;SDS011;10663;42.714;23.274;2023-12-20T05:54:24;93.93;;;53.87;;
21010;SDS011;10663;42.714;23.274;2023-12-20T05:55:55;93.13;;;53.03;;
21010;SDS011;10663;42.714;23.274;2023-12-20T05:57:25;90.77;;;55.47;;
21010;SDS011;10663;42.714;23.274;2023-12-20T05:58:56;92.88;;;54.08;;
21010;SDS011;10663;42.714;23.274;2023-12-20T06:00:27;94.80;;;55.35;;
21010;SDS011;10663;42.714;23.274;2023-12-20T06:01:58;90.50;;;53.57;;
21010;SDS011;10663;42.714;23.274;2023-12-20T06:03:29;95.30;;;55.67;;
21010;SDS011;10663;42.714;23.274;2023-12-20T06:04:59;97.47;;;55.67;;
21010;SDS011;10663;42.714;23.274;2023-12-20T06:06:30;94.07;;;55.67;;
21010;SDS011;10663;42.714;23.274;2023-12-20T06:08:01;95.13;;;55.35;;
21010;SDS011;10663;42.714;23.274;2023-12-20T06:09:33;95.65;;;55.92;;
21010;SDS011;10663;42.714;23.274;2023-12-20T06:11:04;98.90;;;54.83;;
21010;SDS011;10663;42.714;23.274;2023-12-20T06:12:35;98.70;;;57.40;;
21010;SDS011;10663;42.714;23.274;2023-12-20T06:14:06;93.28;;;57.20;;
21010;SDS011;10663;42.714;23.274;2023-12-20T06:15:37;103.05;;;57.75;;
21010;SDS011;10663;42.714;23.274;2023-12-20T06:17:08;100.93;;;56.63;;
21010;SDS011;10663;42.714;23.274;2023-12-20T06:18:38;96.40;;;55.92;;
21010;SDS011;10663;42.714;23.274;2023-12-20T06:20:10;96.03;;;57.05;;
21010;SDS011;10663;42.714;23.274;2023-12-20T06:21:41;101.80;;;58.60;;
21010;SDS011;10663;42.714;23.274;2023-12-20T06:23:11;100.03;;;56.47;;
21010;SDS011;10663;42.714;23.274;2023-12-20T06:24:42;105.32;;;58.53;;
21010;SDS011;10663;42.714;23.274;2023-12-20T06:26:13;97.25;;;56.55;;
21010;SDS011;10663;42.714;23.274;2023-12-20T06:27:44;105.28;;;58.30;;
21010;SDS011;10663;42.714;23.274;2023-12-20T06:29:15;98.00;;;57.17;;
21010;SDS011;10663;42.714;23.274;2023-12-20T06:30:45;95.35;;;55.58;;
21010;SDS011;10663;42.714;23.274;2023-12-20T06:32:19;99.68;;;56.25;;
21010;SDS011;10663;42.714;23.274;2023-12-20T06:33:50;101.90;;;57.60;;
21010;SDS011;10663;42.714;23.274;2023-12-20T06:35:27;108.28;;;56.78;;
21010;SDS011;10663;42.714;23.274;2023-12-20T06:36:58;110.43;;;59.42;;
21010;SDS011;10663;42.714;23.274;2023-12-20T06:38:29;112.20;;;58.27;;
21010;SDS011;10663;42.714;23.274;2023-12-20T06:40:00;107.90;;;58.25;;
21010;SDS011;10663;42.714;23.274;2023-12-20T06:41:30;108.85;;;59.45;;
21010;SDS011;10663;42.714;23.274;2023-12-20T06:43:01;113.88;;;57.92;;
21010;SDS011;10663;42.714;23.274;2023-12-20T06:44:32;108.15;;;57.58;;
21010;SDS011;10663;42.714;23.274;2023-12-20T06:46:02;103.63;;;57.30;;
21010;SDS011;10663;42.714;23.274;2023-12-20T06:47:33;108.97;;;55.58;;
21010;SDS011;10663;42.714;23.274;2023-12-20T06:49:04;99.20;;;53.17;;
21010;SDS011;10663;42.714;23.274;2023-12-20T06:50:35;99.35;;;54.95;;
21010;SDS011;10663;42.714;23.274;2023-12-20T06:52:10;106.53;;;54.33;;
21010;SDS011;10663;42.714;23.274;2023-12-20T06:53:40;101.17;;;55.00;;
21010;SDS011;10663;42.714;23.274;2023-12-20T06:55:11;103.55;;;54.55;;
21010;SDS011;10663;42.714;23.274;2023-12-20T06:56:42;102.40;;;51.90;;
21010;SDS011;10663;42.714;23.274;2023-12-20T06:58:12;98.57;;;51.78;;
21010;SDS011;10663;42.714;23.274;2023-12-20T06:59:43;96.43;;;51.97;;
21010;SDS011;10663;42.714;23.274;2023-12-20T07:01:14;100.47;;;51.33;;
21010;SDS011;10663;42.714;23.274;2023-12-20T07:02:46;95.22;;;49.20;;
21010;SDS011;10663;42.714;23.274;2023-12-20T07:04:17;88.63;;;46.67;;
21010;SDS011;10663;42.714;23.274;2023-12-20T07:05:51;85.68;;;45.78;;
21010;SDS011;10663;42.714;23.274;2023-12-20T07:07:21;83.07;;;44.97;;
21010;SDS011;10663;42.714;23.274;2023-12-20T07:08:54;77.47;;;42.72;;
21010;SDS011;10663;42.714;23.274;2023-12-20T07:10:25;75.23;;;41.57;;
21010;SDS011;10663;42.714;23.274;2023-12-20T07:11:55;68.80;;;38.80;;
21010;SDS011;10663;42.714;23.274;2023-12-20T07:13:26;73.25;;;39.65;;
21010;SDS011;10663;42.714;23.274;2023-12-20T07:14:57;75.60;;;41.42;;
21010;SDS011;10663;42.714;23.274;2023-12-20T07:16:28;83.57;;;43.58;;
21010;SDS011;10663;42.714;23.274;2023-12-20T07:17:58;84.47;;;45.70;;
21010;SDS011;10663;42.714;23.274;2023-12-20T07:19:30;97.10;;;50.88;;
21010;SDS011;10663;42.714;23.274;2023-12-20T07:21:03;88.93;;;46.58;;
21010;SDS011;10663;42.714;23.274;2023-12-20T07:22:33;96.43;;;50.30;;
21010;SDS011;10663;42.714;23.274;2023-12-20T07:24:04;106.18;;;54.35;;
21010;SDS011;10663;42.714;23.274;2023-12-20T07:25:35;111.68;;;56.38;;
21010;SDS011;10663;42.714;23.274;2023-12-20T07:27:06;113.07;;;56.85;;
21010;SDS011;10663;42.714;23.274;2023-12-20T07:28:36;119.07;;;57.90;;
21010;SDS011;10663;42.714;23.274;2023-12-20T07:30:07;112.53;;;60.57;;
21010;SDS011;10663;42.714;23.274;2023-12-20T07:31:38;124.53;;;63.97;;
21010;SDS011;10663;42.714;23.274;2023-12-20T07:33:09;124.70;;;62.28;;
21010;SDS011;10663;42.714;23.274;2023-12-20T07:34:40;133.52;;;63.70;;
21010;SDS011;10663;42.714;23.274;2023-12-20T07:36:11;128.00;;;63.90;;
21010;SDS011;10663;42.714;23.274;2023-12-20T07:37:42;127.07;;;66.03;;
21010;SDS011;10663;42.714;23.274;2023-12-20T07:39:14;136.83;;;72.60;;
21010;SDS011;10663;42.714;23.274;2023-12-20T07:40:45;141.18;;;72.80;;
21010;SDS011;10663;42.714;23.274;2023-12-20T07:42:15;134.35;;;68.13;;
21010;SDS011;10663;42.714;23.274;2023-12-20T07:43:46;140.23;;;71.03;;
21010;SDS011;10663;42.714;23.274;2023-12-20T07:45:17;143.70;;;71.95;;
21010;SDS011;10663;42.714;23.274;2023-12-20T07:46:48;138.20;;;69.78;;
21010;SDS011;10663;42.714;23.274;2023-12-20T07:48:19;135.80;;;69.53;;
21010;SDS011;10663;42.714;23.274;2023-12-20T07:49:50;134.27;;;68.40;;
21010;SDS011;10663;42.714;23.274;2023-12-20T07:51:22;126.13;;;66.95;;
21010;SDS011;10663;42.714;23.274;2023-12-20T07:52:53;128.88;;;65.60;;
21010;SDS011;10663;42.714;23.274;2023-12-20T07:54:23;132.23;;;65.43;;
21010;SDS011;10663;42.714;23.274;2023-12-20T07:55:54;128.02;;;67.07;;
21010;SDS011;10663;42.714;23.274;2023-12-20T07:57:28;135.75;;;68.85;;
21010;SDS011;10663;42.714;23.274;2023-12-20T07:59:00;130.90;;;68.60;;
21010;SDS011;10663;42.714;23.274;2023-12-20T08:00:31;143.30;;;70.47;;
21010;SDS011;10663;42.714;23.274;2023-12-20T08:02:02;140.20;;;71.17;;
21010;SDS011;10663;42.714;23.274;2023-12-20T08:03:33;142.10;;;70.27;;
21010;SDS011;10663;42.714;23.274;2023-12-20T08:05:03;145.52;;;71.03;;
21010;SDS011;10663;42.714;23.274;2023-12-20T08:06:34;142.00;;;69.63;;
21010;SDS011;10663;42.714;23.274;2023-12-20T08:08:05;139.20;;;68.63;;
21010;SDS011;10663;42.714;23.274;2023-12-20T08:09:36;142.37;;;70.77;;
21010;SDS011;10663;42.714;23.274;2023-12-20T08:11:07;139.27;;;70.40;;
21010;SDS011;10663;42.714;23.274;2023-12-20T08:12:38;140.70;;;69.27;;
21010;SDS011;10663;42.714;23.274;2023-12-20T08:14:10;130.20;;;67.40;;
21010;SDS011;10663;42.714;23.274;2023-12-20T08:15:40;138.25;;;68.45;;
21010;SDS011;10663;42.714;23.274;2023-12-20T08:17:11;129.18;;;66.07;;
21010;SDS011;10663;42.714;23.274;2023-12-20T08:18:43;129.43;;;64.82;;
21010;SDS011;10663;42.714;23.274;2023-12-20T08:20:14;133.77;;;68.10;;
21010;SDS011;10663;42.714;23.274;2023-12-20T08:21:44;144.00;;;72.72;;
21010;SDS011;10663;42.714;23.274;2023-12-20T08:23:15;132.80;;;71.33;;
21010;SDS011;10663;42.714;23.274;2023-12-20T08:24:46;136.80;;;68.97;;
21010;SDS011;10663;42.714;23.274;2023-12-20T08:26:18;132.20;;;67.30;;
21010;SDS011;10663;42.714;23.274;2023-12-20T08:27:50;136.13;;;68.63;;
21010;SDS011;10663;42.714;23.274;2023-12-20T08:29:21;141.63;;;69.60;;
21010;SDS011;10663;42.714;23.274;2023-12-20T08:30:52;140.55;;;70.47;;
21010;SDS011;10663;42.714;23.274;2023-12-20T08:32:27;147.95;;;75.95;;
21010;SDS011;10663;42.714;23.274;2023-12-20T08:33:57;143.55;;;71.00;;
21010;SDS011;10663;42.714;23.274;2023-12-20T08:35:28;141.33;;;70.63;;
21010;SDS011;10663;42.714;23.274;2023-12-20T08:36:59;139.45;;;69.47;;
21010;SDS011;10663;42.714;23.274;2023-12-20T08:38:29;142.98;;;72.50;;
21010;SDS011;10663;42.714;23.274;2023-12-20T08:40:00;139.13;;;72.03;;
21010;SDS011;10663;42.714;23.274;2023-12-20T08:41:31;134.83;;;73.50;;
21010;SDS011;10663;42.714;23.274;2023-12-20T08:43:02;148.68;;;75.60;;